createdAt,value
2022-08-10T00:02:38.125Z,4.50
2022-08-10T00:05:26.133Z,4.70
2022-08-10T00:08:18.318Z,3.17
2022-08-10T00:11:16.806Z,3.87
2022-08-10T00:14:04.176Z,3.33
2022-08-10T00:16:51.345Z,2.43
2022-08-10T00:20:03.829Z,1.40
2022-08-10T00:22:48.844Z,2.37
2022-08-10T00:25:44.349Z,4.10
2022-08-10T00:28:31.736Z,2.97
2022-08-10T00:31:19.068Z,3.60
2022-08-10T00:34:06.295Z,2.63
2022-08-10T00:36:53.211Z,2.13
2022-08-10T00:39:40.341Z,4.03
2022-08-10T00:42:28.981Z,4.30
2022-08-10T00:45:16.153Z,2.40
2022-08-10T00:48:03.125Z,3.87
2022-08-10T00:50:50.621Z,3.07
2022-08-10T00:53:37.708Z,4.03
2022-08-10T00:57:12.634Z,3.07
2022-08-10T00:59:34.350Z,3.70
2022-08-10T01:02:22.094Z,3.43
2022-08-10T01:05:09.330Z,3.57
2022-08-10T01:08:09.077Z,3.67
2022-08-10T01:11:03.576Z,2.27
2022-08-10T01:14:17.698Z,3.13
2022-08-10T01:17:16.929Z,2.93
2022-08-10T01:20:30.749Z,3.30
2022-08-10T01:23:26.941Z,2.07
2022-08-10T01:26:40.513Z,4.43
2022-08-10T01:29:54.225Z,3.30
2022-08-10T01:32:52.908Z,2.33
2022-08-10T01:35:54.993Z,4.80
2022-08-10T01:38:49.747Z,4.83
2022-08-10T01:41:46.618Z,4.80
2022-08-10T01:44:41.008Z,3.30
2022-08-10T01:47:30.061Z,2.00
2022-08-10T01:50:23.387Z,5.77
2022-08-10T01:53:13.283Z,4.87
2022-08-10T01:56:01.690Z,2.67
2022-08-10T01:58:51.131Z,3.93
2022-08-10T02:01:42.281Z,3.37
2022-08-10T02:04:33.578Z,3.60
2022-08-10T02:07:22.630Z,4.30
2022-08-10T02:10:13.507Z,4.27
2022-08-10T02:13:03.445Z,3.10
2022-08-10T02:16:01.406Z,3.87
2022-08-10T02:18:50.623Z,3.47
2022-08-10T02:21:38.246Z,2.97
2022-08-10T02:24:47.803Z,4.27
2022-08-10T02:27:36.137Z,1.87
2022-08-10T02:30:25.606Z,3.03
2022-08-10T02:33:13.222Z,3.10
2022-08-10T02:36:06.981Z,4.17
2022-08-10T02:39:00.701Z,1.93
2022-08-10T02:45:02.061Z,2.63
2022-08-10T02:45:29.935Z,6.20
2022-08-10T02:48:26.672Z,3.67
2022-08-10T02:52:06.321Z,5.30
2022-08-10T02:54:39.553Z,2.70
2022-08-10T02:57:31.138Z,2.17
2022-08-10T03:00:22.049Z,2.70
2022-08-10T03:03:11.202Z,4.67
2022-08-10T03:05:58.203Z,3.03
2022-08-10T03:08:51.030Z,5.53
2022-08-10T03:12:36.038Z,3.77
2022-08-10T03:14:52.504Z,5.57
2022-08-10T03:17:41.845Z,3.33
2022-08-10T03:20:44.317Z,5.10
2022-08-10T03:23:37.653Z,4.93
2022-08-10T03:26:25.539Z,5.17
2022-08-10T03:29:14.094Z,4.70
2022-08-10T03:32:01.363Z,4.30
2022-08-10T03:34:49.077Z,2.83
2022-08-10T03:37:35.997Z,3.93
2022-08-10T03:40:23.294Z,3.90
2022-08-10T03:43:32.131Z,3.80
2022-08-10T03:46:23.077Z,7.27
2022-08-10T03:49:15.053Z,4.87
2022-08-10T03:52:02.104Z,3.33
2022-08-10T03:54:49.201Z,4.30
2022-08-10T03:57:36.208Z,3.90
2022-08-10T04:00:37.508Z,3.57
2022-08-10T04:03:25.912Z,5.57
2022-08-10T04:06:17.031Z,2.93
2022-08-10T04:09:04.596Z,3.60
2022-08-10T04:11:52.019Z,3.67
2022-08-10T04:14:49.340Z,4.27
2022-08-10T04:17:59.475Z,6.10
2022-08-10T04:20:50.935Z,3.23
2022-08-10T04:23:52.525Z,5.47
2022-08-10T04:26:40.533Z,3.03
2022-08-10T04:29:27.551Z,4.50
2022-08-10T04:32:14.508Z,4.13
2022-08-10T04:35:05.092Z,6.17
2022-08-10T04:37:54.757Z,6.07
2022-08-10T04:40:42.720Z,4.97
2022-08-10T04:43:29.992Z,3.50
2022-08-10T04:46:56.556Z,4.17
2022-08-10T04:49:54.510Z,3.93
2022-08-10T04:52:31.221Z,5.53
2022-08-10T04:55:18.164Z,3.20
2022-08-10T04:58:05.204Z,4.03
2022-08-10T05:00:52.134Z,3.37
2022-08-10T05:04:34.840Z,4.23
2022-08-10T05:06:46.888Z,2.33
2022-08-10T05:09:34.049Z,3.80
2022-08-10T05:12:42.086Z,4.07
2022-08-10T05:15:33.920Z,3.53
2022-08-10T05:18:20.833Z,3.50
2022-08-10T05:21:07.805Z,3.97
2022-08-10T05:23:54.837Z,3.80
2022-08-10T05:27:00.146Z,5.13
2022-08-10T05:30:01.438Z,4.00
2022-08-10T05:32:57.716Z,3.93
2022-08-10T05:35:57.844Z,3.87
2022-08-10T05:38:48.430Z,4.70
2022-08-10T05:41:40.280Z,4.53
2022-08-10T05:44:29.916Z,4.03
2022-08-10T05:47:17.382Z,3.70
2022-08-10T05:50:06.327Z,3.37
2022-08-10T05:52:33.428Z,4.73
2022-08-10T05:55:02.926Z,3.40
2022-08-10T05:57:30.576Z,3.57
2022-08-10T06:00:35.830Z,2.83
2022-08-10T06:02:52.426Z,3.57
2022-08-10T06:05:28.184Z,3.70
2022-08-10T06:08:17.648Z,3.90
2022-08-10T06:12:28.114Z,3.30
2022-08-10T06:14:16.128Z,2.80
2022-08-10T06:17:06.008Z,2.63
2022-08-10T06:19:54.528Z,2.80
2022-08-10T06:22:42.113Z,3.80
2022-08-10T06:26:09.037Z,3.30
2022-08-10T06:28:39.660Z,3.83
2022-08-10T06:31:27.508Z,4.13
2022-08-10T06:34:16.185Z,2.63
2022-08-10T06:37:05.685Z,2.57
2022-08-10T06:39:53.397Z,2.60
2022-08-10T06:42:47.830Z,3.87
2022-08-10T06:45:43.049Z,2.13
2022-08-10T06:48:34.048Z,2.93
2022-08-10T06:51:25.273Z,3.03
2022-08-10T06:54:17.537Z,2.60
2022-08-10T06:57:17.675Z,2.17
2022-08-10T07:00:07.390Z,2.47
2022-08-10T07:03:07.271Z,3.10
2022-08-10T07:05:59.409Z,2.83
2022-08-10T07:08:51.592Z,2.03
2022-08-10T07:11:40.778Z,1.70
2022-08-10T07:14:32.529Z,1.70
2022-08-10T07:17:20.382Z,1.97
2022-08-10T07:20:14.814Z,3.03
2022-08-10T07:23:55.159Z,2.40
2022-08-10T07:26:13.185Z,2.57
2022-08-10T07:29:01.199Z,1.50
2022-08-10T07:31:55.767Z,1.13
2022-08-10T07:34:45.706Z,1.17
2022-08-10T07:37:34.653Z,0.90
2022-08-10T07:40:24.116Z,0.97
2022-08-10T07:43:17.957Z,1.47
2022-08-10T07:46:09.469Z,1.10
2022-08-10T07:49:02.791Z,0.60
2022-08-10T07:52:08.138Z,1.43
2022-08-10T07:55:00.504Z,0.60
2022-08-10T07:57:31.774Z,0.60
2022-08-10T08:00:05.841Z,0.70
2022-08-10T08:02:57.684Z,1.00
2022-08-10T08:05:57.547Z,1.43
2022-08-10T08:08:16.136Z,1.43
2022-08-10T08:10:43.373Z,0.73
2022-08-10T08:13:12.005Z,0.80
2022-08-10T08:16:18.014Z,0.70
2022-08-10T08:18:29.266Z,1.57
2022-08-10T08:20:58.685Z,0.70
2022-08-10T08:24:04.649Z,0.60
2022-08-10T08:26:18.498Z,0.83
2022-08-10T08:28:46.481Z,1.97
2022-08-10T08:31:15.517Z,1.93
2022-08-10T08:33:45.543Z,1.97
2022-08-10T08:36:16.178Z,0.73
2022-08-10T08:38:44.370Z,0.80
2022-08-10T08:41:29.542Z,0.80
2022-08-10T08:44:21.297Z,0.90
2022-08-10T08:48:02.323Z,0.93
2022-08-10T08:50:27.665Z,0.90
2022-08-10T08:53:22.215Z,0.67
2022-08-10T08:56:05.581Z,1.63
2022-08-10T08:58:58.569Z,1.00
2022-08-10T09:01:48.134Z,0.80
2022-08-10T09:04:33.883Z,1.00
2022-08-10T09:07:39.461Z,2.37
2022-08-10T09:10:26.553Z,0.70
2022-08-10T09:13:01.378Z,1.13
2022-08-10T09:15:45.538Z,0.70
2022-08-10T09:18:31.994Z,1.13
2022-08-10T09:21:06.441Z,0.47
2022-08-10T09:24:01.985Z,0.60
2022-08-10T09:26:42.586Z,0.70
2022-08-10T09:29:19.638Z,0.50
2022-08-10T09:36:14.637Z,0.70
2022-08-10T09:36:28.042Z,1.00
2022-08-10T09:38:02.003Z,1.17
2022-08-10T09:40:59.414Z,0.70
2022-08-10T09:43:41.133Z,0.53
2022-08-10T09:46:36.597Z,0.83
2022-08-10T09:49:53.219Z,0.60
2022-08-10T09:52:39.463Z,1.57
2022-08-10T09:55:12.716Z,1.60
2022-08-10T09:57:49.111Z,1.33
2022-08-10T10:00:27.470Z,0.80
2022-08-10T10:03:11.822Z,0.80
2022-08-10T10:06:10.904Z,0.73
2022-08-10T10:09:26.961Z,0.60
2022-08-10T10:12:39.842Z,0.63
2022-08-10T10:15:55.280Z,3.70
2022-08-10T10:19:14.468Z,0.90
2022-08-10T10:22:11.837Z,1.00
2022-08-10T10:25:19.972Z,2.17
2022-08-10T10:28:21.683Z,1.20
2022-08-10T10:31:16.909Z,1.27
2022-08-10T10:34:10.045Z,1.53
2022-08-10T10:37:00.024Z,1.57
2022-08-10T10:39:48.429Z,1.63
2022-08-10T10:42:49.962Z,1.40
2022-08-10T10:45:54.238Z,0.97
2022-08-10T10:49:02.967Z,0.60
2022-08-10T10:52:17.693Z,0.40
2022-08-10T10:55:16.299Z,0.53
2022-08-10T10:58:09.413Z,0.83
2022-08-10T11:01:14.838Z,0.40
2022-08-10T11:04:13.742Z,1.43
2022-08-10T11:07:17.319Z,1.20
2022-08-10T11:10:33.405Z,2.13
2022-08-10T11:14:28.837Z,3.10
2022-08-10T11:17:34.772Z,0.83
2022-08-10T11:20:42.528Z,1.03
2022-08-10T11:24:49.018Z,0.40
2022-08-10T11:27:22.630Z,0.70
2022-08-10T11:30:22.726Z,0.47
2022-08-10T11:34:11.713Z,0.50
2022-08-10T11:37:16.329Z,0.40
2022-08-10T11:40:06.102Z,0.40
2022-08-10T11:43:05.455Z,1.17
2022-08-10T11:45:55.737Z,0.50
2022-08-10T11:48:57.000Z,0.50
2022-08-10T11:52:04.794Z,1.17
2022-08-10T11:55:02.269Z,1.40
2022-08-10T11:57:54.294Z,2.60
2022-08-10T12:00:44.370Z,1.33
2022-08-10T12:03:34.722Z,1.83
2022-08-10T12:06:53.759Z,1.70
2022-08-10T12:10:11.121Z,1.43
2022-08-10T12:12:42.211Z,2.13
2022-08-10T12:15:37.183Z,1.40
2022-08-10T12:18:33.865Z,1.70
2022-08-10T12:21:34.402Z,1.30
2022-08-10T12:24:40.193Z,1.40
2022-08-10T12:27:55.988Z,1.60
2022-08-10T12:30:52.496Z,1.60
2022-08-10T12:34:02.061Z,2.43
2022-08-10T12:36:59.993Z,1.97
2022-08-10T12:40:17.592Z,1.70
2022-08-10T12:44:04.346Z,1.33
2022-08-10T12:46:34.705Z,2.33
2022-08-10T12:49:10.735Z,1.77
2022-08-10T12:51:49.607Z,2.23
2022-08-10T12:54:39.691Z,1.60
2022-08-10T12:57:16.036Z,2.27
2022-08-10T12:59:50.157Z,1.73
2022-08-10T13:02:25.922Z,1.87
2022-08-10T13:04:56.433Z,2.10
2022-08-10T13:08:05.321Z,1.90
2022-08-10T13:10:18.293Z,1.83
2022-08-10T13:12:49.547Z,3.43
2022-08-10T13:15:48.354Z,2.03
2022-08-10T13:18:19.009Z,1.97
2022-08-10T13:20:52.196Z,2.60
2022-08-10T13:23:26.882Z,2.23
2022-08-10T13:25:59.465Z,2.37
2022-08-10T13:28:39.535Z,2.20
2022-08-10T13:31:16.132Z,2.20
2022-08-10T13:34:40.354Z,2.60
2022-08-10T13:36:51.480Z,3.50
2022-08-10T13:39:25.519Z,3.93
2022-08-10T13:41:55.405Z,2.10
2022-08-10T13:44:38.392Z,2.17
2022-08-10T13:47:07.702Z,2.13
2022-08-10T13:49:48.303Z,2.93
2022-08-10T13:52:18.961Z,4.97
2022-08-10T13:54:47.853Z,2.43
2022-08-10T13:57:21.783Z,2.90
2022-08-10T14:00:37.564Z,2.40
2022-08-10T14:02:48.368Z,3.20
2022-08-10T14:05:22.646Z,2.33
2022-08-10T14:08:01.130Z,2.70
2022-08-10T14:11:09.602Z,2.67
2022-08-10T14:13:26.012Z,2.90
2022-08-10T14:15:54.278Z,2.17
2022-08-10T14:18:21.634Z,2.87
2022-08-10T14:20:51.865Z,2.43
2022-08-10T14:23:18.857Z,2.20
2022-08-10T14:25:53.661Z,2.10
2022-08-10T14:28:26.379Z,3.50
2022-08-10T14:31:02.844Z,3.30
2022-08-10T14:33:32.661Z,2.77
2022-08-10T14:36:21.549Z,1.87
2022-08-10T14:38:49.141Z,3.23
2022-08-10T14:42:03.746Z,1.70
2022-08-10T14:44:17.495Z,1.70
2022-08-10T14:46:51.524Z,2.60
2022-08-10T14:49:25.387Z,1.87
2022-08-10T14:52:00.122Z,2.73
2022-08-10T14:54:30.081Z,2.20
2022-08-10T14:57:10.646Z,2.00
2022-08-10T15:00:23.286Z,2.20
2022-08-10T15:02:39.066Z,1.73
2022-08-10T15:05:09.925Z,2.03
2022-08-10T15:07:38.613Z,1.70
2022-08-10T15:10:09.504Z,1.83
2022-08-10T15:12:39.919Z,1.97
2022-08-10T15:15:11.080Z,2.07
2022-08-10T15:17:49.033Z,1.90
2022-08-10T15:20:20.326Z,1.73
2022-08-10T15:22:51.054Z,1.70
2022-08-10T15:25:24.326Z,1.40
2022-08-10T15:27:57.336Z,2.03
2022-08-10T15:30:32.221Z,1.60
2022-08-10T15:33:59.373Z,1.90
2022-08-10T15:36:34.557Z,1.80
2022-08-10T15:39:05.158Z,1.37
2022-08-10T15:41:57.690Z,1.67
2022-08-10T15:44:39.796Z,1.70
2022-08-10T15:47:15.704Z,1.50
2022-08-10T15:49:52.468Z,3.17
2022-08-10T15:52:39.318Z,1.50
2022-08-10T15:55:42.589Z,1.60
2022-08-10T15:58:06.783Z,1.67
2022-08-10T16:00:40.013Z,1.70
2022-08-10T16:03:44.383Z,1.70
2022-08-10T16:07:03.558Z,2.60
2022-08-10T16:10:23.542Z,1.63
2022-08-10T16:12:34.579Z,1.67
2022-08-10T16:15:09.841Z,2.10
2022-08-10T16:18:13.314Z,1.80
2022-08-10T16:20:55.148Z,2.03
2022-08-10T16:24:14.290Z,1.70
2022-08-10T16:26:46.733Z,2.30
2022-08-10T16:29:17.640Z,1.67
2022-08-10T16:31:52.888Z,1.37
2022-08-10T16:34:21.890Z,1.77
2022-08-10T16:37:21.247Z,1.50
2022-08-10T16:40:19.207Z,2.20
2022-08-10T16:43:08.113Z,1.70
2022-08-10T16:45:59.903Z,1.60
2022-08-10T16:48:52.540Z,1.73
2022-08-10T16:51:22.642Z,2.27
2022-08-10T16:53:52.661Z,2.17
2022-08-10T16:56:33.390Z,1.13
2022-08-10T16:59:02.684Z,1.67
2022-08-10T17:01:36.308Z,2.03
2022-08-10T17:04:09.896Z,2.47
2022-08-10T17:06:55.391Z,1.50
2022-08-10T17:09:27.887Z,1.60
2022-08-10T17:11:58.443Z,1.50
2022-08-10T17:14:28.676Z,1.67
2022-08-10T17:17:20.739Z,1.53
2022-08-10T17:19:49.129Z,2.30
2022-08-10T17:22:21.625Z,1.73
2022-08-10T17:25:15.453Z,2.00
2022-08-10T17:28:05.882Z,2.20
2022-08-10T17:30:35.232Z,2.57
2022-08-10T17:33:20.408Z,2.17
2022-08-10T17:35:50.444Z,1.50
2022-08-10T17:38:26.135Z,2.83
2022-08-10T17:41:03.573Z,2.00
2022-08-10T17:43:46.428Z,2.23
2022-08-10T17:46:39.000Z,2.90
2022-08-10T17:49:31.309Z,2.73
2022-08-10T17:52:19.761Z,1.80
2022-08-10T17:55:13.340Z,2.63
2022-08-10T17:58:01.907Z,1.80
2022-08-10T18:00:51.065Z,3.17
2022-08-10T18:03:42.173Z,2.20
2022-08-10T18:06:35.403Z,2.47
2022-08-10T18:09:29.805Z,1.70
2022-08-10T18:12:30.511Z,2.67
2022-08-10T18:15:27.497Z,2.10
2022-08-10T18:17:59.977Z,1.70
2022-08-10T18:20:35.679Z,1.70
2022-08-10T18:23:03.627Z,2.10
2022-08-10T18:25:35.014Z,1.67
2022-08-10T18:28:05.229Z,1.80
2022-08-10T18:30:45.373Z,1.70
2022-08-10T18:33:14.544Z,1.67
2022-08-10T18:35:43.883Z,2.40
2022-08-10T18:38:12.732Z,2.00
2022-08-10T18:40:43.609Z,2.47
2022-08-10T18:44:07.677Z,3.00
2022-08-10T18:46:01.323Z,2.60
2022-08-10T18:48:38.985Z,2.03
2022-08-10T18:51:08.715Z,2.00
2022-08-10T18:53:50.700Z,2.50
2022-08-10T18:56:20.785Z,2.30
2022-08-10T18:59:19.288Z,2.37
2022-08-10T19:01:58.977Z,2.63
2022-08-10T19:04:51.202Z,2.20
2022-08-10T19:07:30.504Z,2.50
2022-08-10T19:10:12.520Z,4.93
2022-08-10T19:12:48.353Z,2.63
2022-08-10T19:15:27.996Z,2.20
2022-08-10T19:18:12.349Z,2.40
2022-08-10T19:20:51.475Z,2.50
2022-08-10T19:23:37.873Z,2.27
2022-08-10T19:26:44.445Z,3.10
2022-08-10T19:30:08.442Z,3.97
2022-08-10T19:32:36.277Z,3.13
2022-08-10T19:35:21.324Z,3.13
2022-08-10T19:38:04.254Z,3.10
2022-08-10T19:40:46.476Z,2.97
2022-08-10T19:44:00.217Z,3.43
2022-08-10T19:46:40.927Z,3.73
2022-08-10T19:49:27.980Z,3.67
2022-08-10T19:52:11.008Z,3.37
2022-08-10T19:55:15.113Z,3.40
2022-08-10T19:58:02.797Z,3.50
2022-08-10T20:00:40.839Z,3.40
2022-08-10T20:03:25.730Z,3.10
2022-08-10T20:06:20.638Z,2.87
2022-08-10T20:08:56.756Z,3.30
2022-08-10T20:11:46.426Z,2.93
2022-08-10T20:14:29.092Z,4.03
2022-08-10T20:17:02.679Z,3.77
2022-08-10T20:19:52.840Z,3.57
2022-08-10T20:22:29.457Z,3.33
2022-08-10T20:25:17.648Z,5.60
2022-08-10T20:28:00.615Z,3.50
2022-08-10T20:30:32.631Z,3.80
2022-08-10T20:33:03.516Z,3.47
2022-08-10T20:35:53.816Z,4.07
2022-08-10T20:38:47.403Z,3.17
2022-08-10T20:41:58.313Z,5.13
2022-08-10T20:44:49.728Z,4.77
2022-08-10T20:47:20.125Z,5.10
2022-08-10T20:49:55.884Z,4.93
2022-08-10T20:52:25.282Z,3.70
2022-08-10T20:55:02.182Z,4.10
2022-08-10T20:57:56.704Z,3.63
2022-08-10T21:00:47.986Z,3.37
2022-08-10T21:03:51.426Z,3.87
2022-08-10T21:06:44.069Z,3.70
2022-08-10T21:09:23.205Z,4.33
2022-08-10T21:12:00.554Z,3.43
2022-08-10T21:14:47.813Z,3.60
2022-08-10T21:17:39.997Z,3.63
2022-08-10T21:20:30.855Z,5.80
2022-08-10T21:23:05.082Z,6.03
2022-08-10T21:26:08.165Z,3.90
2022-08-10T21:29:01.486Z,4.57
2022-08-10T21:31:44.621Z,4.67
2022-08-10T21:34:31.820Z,4.20
2022-08-10T21:37:17.725Z,4.07
2022-08-10T21:39:57.561Z,5.53
2022-08-10T21:43:04.046Z,5.17
2022-08-10T21:46:12.485Z,5.17
2022-08-10T21:49:16.599Z,4.67
2022-08-10T21:52:53.855Z,5.20
2022-08-10T21:55:58.675Z,4.10
2022-08-10T21:59:05.047Z,5.13
2022-08-10T22:01:57.564Z,4.77
2022-08-10T22:04:45.846Z,5.63
2022-08-10T22:07:36.564Z,4.90
2022-08-10T22:10:25.745Z,6.43
2022-08-10T22:13:13.465Z,6.33
2022-08-10T22:16:11.440Z,6.10
2022-08-10T22:19:03.694Z,4.00
2022-08-10T22:21:52.208Z,6.90
2022-08-10T22:25:17.440Z,5.37
2022-08-10T22:28:17.476Z,5.17
2022-08-10T22:31:32.276Z,4.80
2022-08-10T22:34:43.318Z,4.27
2022-08-10T22:38:08.138Z,4.17
2022-08-10T22:40:54.336Z,5.07
2022-08-10T22:43:49.181Z,4.83
2022-08-10T22:46:39.095Z,5.13
2022-08-10T22:49:06.564Z,5.13
2022-08-10T22:51:51.990Z,5.60
2022-08-10T22:54:53.203Z,5.17
2022-08-10T22:57:44.453Z,5.83
2022-08-10T23:00:18.361Z,5.80
2022-08-10T23:02:53.592Z,7.07
2022-08-10T23:05:31.252Z,5.23
2022-08-10T23:08:30.487Z,4.00
2022-08-10T23:11:04.713Z,5.67
2022-08-10T23:13:36.074Z,5.90
2022-08-10T23:16:24.745Z,8.27
2022-08-10T23:19:11.246Z,5.17
2022-08-10T23:22:01.251Z,7.03
2022-08-10T23:24:33.317Z,5.37
2022-08-10T23:27:12.439Z,4.10
2022-08-10T23:30:10.133Z,6.13
2022-08-10T23:32:42.254Z,4.13
2022-08-10T23:36:30.965Z,9.03
2022-08-10T23:38:06.824Z,5.13
2022-08-10T23:40:35.442Z,7.20
2022-08-10T23:43:04.903Z,6.30
2022-08-10T23:45:53.934Z,4.90
2022-08-10T23:48:25.063Z,4.43
2022-08-10T23:50:58.590Z,6.47
2022-08-10T23:53:35.428Z,5.57
2022-08-10T23:56:12.933Z,7.77
2022-08-10T23:58:45.571Z,7.47
